sensor_id;sensor_type;location;lat;lon;timestamp;temperature;humidity
53904;DHT22;39812;52.430;16.936;2024-03-07T00:09:35;0.60;1.00
53904;DHT22;39812;52.430;16.936;2024-03-07T00:12:01;0.90;1.00
53904;DHT22;39812;52.430;16.936;2024-03-07T00:14:27;1.40;1.00
53904;DHT22;39812;52.430;16.936;2024-03-07T00:16:56;2.20;1.00
53904;DHT22;39812;52.430;16.936;2024-03-07T00:21:58;1.10;1.00
53904;DHT22;39812;52.430;16.936;2024-03-07T00:26:52;1.00;1.00
53904;DHT22;39812;52.430;16.936;2024-03-07T00:31:45;0.60;1.00
53904;DHT22;39812;52.430;16.936;2024-03-07T00:34:13;0.60;1.00
53904;DHT22;39812;52.430;16.936;2024-03-07T00:36:40;0.60;1.00
53904;DHT22;39812;52.430;16.936;2024-03-07T00:39:05;0.50;1.00
53904;DHT22;39812;52.430;16.936;2024-03-07T00:46:26;1.10;1.00
53904;DHT22;39812;52.430;16.936;2024-03-07T00:48:51;-0.10;1.00
53904;DHT22;39812;52.430;16.936;2024-03-07T00:51:17;0.10;1.00
53904;DHT22;39812;52.430;16.936;2024-03-07T00:53:42;1.90;1.00
53904;DHT22;39812;52.430;16.936;2024-03-07T00:58:34;0.70;1.00
53904;DHT22;39812;52.430;16.936;2024-03-07T01:05:52;1.80;1.00
53904;DHT22;39812;52.430;16.936;2024-03-07T01:20:36;1.40;1.00
53904;DHT22;39812;52.430;16.936;2024-03-07T01:23:01;0.40;1.00
53904;DHT22;39812;52.430;16.936;2024-03-07T01:27:53;1.70;1.00
53904;DHT22;39812;52.430;16.936;2024-03-07T01:35:10;1.20;1.00
53904;DHT22;39812;52.430;16.936;2024-03-07T01:37:36;1.80;1.00
53904;DHT22;39812;52.430;16.936;2024-03-07T01:40:03;0.60;1.00
53904;DHT22;39812;52.430;16.936;2024-03-07T01:42:30;1.50;99.90
53904;DHT22;39812;52.430;16.936;2024-03-07T01:44:56;0.50;1.00
53904;DHT22;39812;52.430;16.936;2024-03-07T01:47:22;2.60;1.00
53904;DHT22;39812;52.430;16.936;2024-03-07T01:49:48;0.70;1.00
53904;DHT22;39812;52.430;16.936;2024-03-07T01:52:13;1.50;1.00
53904;DHT22;39812;52.430;16.936;2024-03-07T01:54:39;0.00;1.00
53904;DHT22;39812;52.430;16.936;2024-03-07T01:57:05;0.30;1.00
53904;DHT22;39812;52.430;16.936;2024-03-07T01:59:31;1.20;99.90
53904;DHT22;39812;52.430;16.936;2024-03-07T02:04:23;0.40;1.00
53904;DHT22;39812;52.430;16.936;2024-03-07T02:06:50;0.30;1.00
53904;DHT22;39812;52.430;16.936;2024-03-07T02:09:16;1.70;1.00
53904;DHT22;39812;52.430;16.936;2024-03-07T02:11:42;0.50;99.90
53904;DHT22;39812;52.430;16.936;2024-03-07T02:16:34;0.80;99.90
53904;DHT22;39812;52.430;16.936;2024-03-07T02:19:00;-0.30;1.00
53904;DHT22;39812;52.430;16.936;2024-03-07T02:21:26;0.30;1.00
53904;DHT22;39812;52.430;16.936;2024-03-07T02:23:52;1.80;1.00
53904;DHT22;39812;52.430;16.936;2024-03-07T02:26:18;0.80;1.00
53904;DHT22;39812;52.430;16.936;2024-03-07T02:28:43;1.90;1.00
53904;DHT22;39812;52.430;16.936;2024-03-07T02:31:09;0.30;1.00
53904;DHT22;39812;52.430;16.936;2024-03-07T02:33:34;0.30;1.00
53904;DHT22;39812;52.430;16.936;2024-03-07T02:36:00;0.00;1.00
53904;DHT22;39812;52.430;16.936;2024-03-07T02:40:51;0.70;1.00
53904;DHT22;39812;52.430;16.936;2024-03-07T02:45:43;0.70;1.00
53904;DHT22;39812;52.430;16.936;2024-03-07T02:48:08;0.40;1.00
53904;DHT22;39812;52.430;16.936;2024-03-07T02:50:37;1.10;99.90
53904;DHT22;39812;52.430;16.936;2024-03-07T02:53:06;3.00;1.00
53904;DHT22;39812;52.430;16.936;2024-03-07T03:00:27;0.00;1.00
53904;DHT22;39812;52.430;16.936;2024-03-07T03:05:21;1.30;1.00
53904;DHT22;39812;52.430;16.936;2024-03-07T03:10:23;-0.30;1.00
53904;DHT22;39812;52.430;16.936;2024-03-07T03:17:47;1.80;1.00
53904;DHT22;39812;52.430;16.936;2024-03-07T03:20:13;1.40;1.00
53904;DHT22;39812;52.430;16.936;2024-03-07T03:25:32;-2.30;1.00
53904;DHT22;39812;52.430;16.936;2024-03-07T03:28:04;-0.10;1.00
53904;DHT22;39812;52.430;16.936;2024-03-07T03:32:55;-0.40;1.00
53904;DHT22;39812;52.430;16.936;2024-03-07T03:35:21;-0.40;1.00
53904;DHT22;39812;52.430;16.936;2024-03-07T03:42:39;-0.60;1.00
53904;DHT22;39812;52.430;16.936;2024-03-07T03:45:06;0.10;1.00
53904;DHT22;39812;52.430;16.936;2024-03-07T03:47:34;-1.80;1.00
53904;DHT22;39812;52.430;16.936;2024-03-07T03:52:27;-2.00;1.00
53904;DHT22;39812;52.430;16.936;2024-03-07T03:54:54;-2.10;1.00
53904;DHT22;39812;52.430;16.936;2024-03-07T04:02:11;-0.50;1.00
53904;DHT22;39812;52.430;16.936;2024-03-07T04:04:40;-2.50;1.00
53904;DHT22;39812;52.430;16.936;2024-03-07T04:07:06;-1.40;1.00
53904;DHT22;39812;52.430;16.936;2024-03-07T04:14:25;-1.70;1.00
53904;DHT22;39812;52.430;16.936;2024-03-07T04:16:51;-0.40;1.00
53904;DHT22;39812;52.430;16.936;2024-03-07T04:19:17;1.10;1.00
53904;DHT22;39812;52.430;16.936;2024-03-07T04:24:12;1.40;1.00
53904;DHT22;39812;52.430;16.936;2024-03-07T04:26:38;-0.60;1.00
53904;DHT22;39812;52.430;16.936;2024-03-07T04:36:25;-0.40;1.00
53904;DHT22;39812;52.430;16.936;2024-03-07T04:41:17;-2.60;1.00
53904;DHT22;39812;52.430;16.936;2024-03-07T04:43:44;-2.80;1.00
53904;DHT22;39812;52.430;16.936;2024-03-07T04:48:36;-0.90;1.00
53904;DHT22;39812;52.430;16.936;2024-03-07T04:53:28;-2.10;1.00
53904;DHT22;39812;52.430;16.936;2024-03-07T05:00:47;1.10;1.00
53904;DHT22;39812;52.430;16.936;2024-03-07T05:12:58;-2.00;1.00
53904;DHT22;39812;52.430;16.936;2024-03-07T05:15:26;-1.70;1.00
53904;DHT22;39812;52.430;16.936;2024-03-07T05:17:52;-2.80;1.00
53904;DHT22;39812;52.430;16.936;2024-03-07T05:30:08;-1.10;1.00
53904;DHT22;39812;52.430;16.936;2024-03-07T05:32:37;-2.50;1.00
53904;DHT22;39812;52.430;16.936;2024-03-07T05:35:02;-2.80;1.00
53904;DHT22;39812;52.430;16.936;2024-03-07T05:39:54;-1.80;1.00
53904;DHT22;39812;52.430;16.936;2024-03-07T05:49:39;-2.90;1.00
53904;DHT22;39812;52.430;16.936;2024-03-07T05:52:05;-2.40;1.00
53904;DHT22;39812;52.430;16.936;2024-03-07T05:54:32;-1.10;1.00
53904;DHT22;39812;52.430;16.936;2024-03-07T06:04:16;-1.20;1.00
53904;DHT22;39812;52.430;16.936;2024-03-07T06:09:09;-1.50;1.00
53904;DHT22;39812;52.430;16.936;2024-03-07T06:14:05;-0.60;1.00
53904;DHT22;39812;52.430;16.936;2024-03-07T06:16:33;-0.40;1.00
53904;DHT22;39812;52.430;16.936;2024-03-07T06:19:02;-0.30;1.00
53904;DHT22;39812;52.430;16.936;2024-03-07T06:21:29;-0.20;1.00
53904;DHT22;39812;52.430;16.936;2024-03-07T06:23:57;3.10;1.00
53904;DHT22;39812;52.430;16.936;2024-03-07T06:26:33;-1.10;1.00
53904;DHT22;39812;52.430;16.936;2024-03-07T06:29:16;-0.10;1.00
53904;DHT22;39812;52.430;16.936;2024-03-07T06:36:35;2.80;1.00
53904;DHT22;39812;52.430;16.936;2024-03-07T06:39:02;0.90;1.00
53904;DHT22;39812;52.430;16.936;2024-03-07T06:48:49;0.20;1.00
53904;DHT22;39812;52.430;16.936;2024-03-07T06:53:43;-0.80;1.00
53904;DHT22;39812;52.430;16.936;2024-03-07T06:56:09;-0.40;1.00
53904;DHT22;39812;52.430;16.936;2024-03-07T07:01:00;3.10;99.90
53904;DHT22;39812;52.430;16.936;2024-03-07T07:08:24;1.60;99.90
53904;DHT22;39812;52.430;16.936;2024-03-07T07:13:15;1.80;99.90
53904;DHT22;39812;52.430;16.936;2024-03-07T07:20:36;0.60;99.90
53904;DHT22;39812;52.430;16.936;2024-03-07T07:30:22;1.80;99.90
53904;DHT22;39812;52.430;16.936;2024-03-07T07:32:49;2.00;99.90
53904;DHT22;39812;52.430;16.936;2024-03-07T07:35:15;3.50;99.90
53904;DHT22;39812;52.430;16.936;2024-03-07T07:37:49;2.20;99.90
53904;DHT22;39812;52.430;16.936;2024-03-07T07:40:18;2.10;99.90
53904;DHT22;39812;52.430;16.936;2024-03-07T07:42:47;1.60;99.90
53904;DHT22;39812;52.430;16.936;2024-03-07T07:45:15;1.90;99.90
53904;DHT22;39812;52.430;16.936;2024-03-07T07:47:42;0.90;99.90
53904;DHT22;39812;52.430;16.936;2024-03-07T07:52:43;2.80;99.90
53904;DHT22;39812;52.430;16.936;2024-03-07T07:55:09;2.60;99.90
53904;DHT22;39812;52.430;16.936;2024-03-07T07:57:48;1.90;99.90
53904;DHT22;39812;52.430;16.936;2024-03-07T08:00:16;2.70;99.90
53904;DHT22;39812;52.430;16.936;2024-03-07T08:02:56;3.30;99.90
53904;DHT22;39812;52.430;16.936;2024-03-07T08:05:35;3.10;99.90
53904;DHT22;39812;52.430;16.936;2024-03-07T08:08:08;3.40;99.90
53904;DHT22;39812;52.430;16.936;2024-03-07T08:10:35;3.60;99.90
53904;DHT22;39812;52.430;16.936;2024-03-07T08:13:02;5.30;99.90
53904;DHT22;39812;52.430;16.936;2024-03-07T08:15:29;3.80;99.90
53904;DHT22;39812;52.430;16.936;2024-03-07T08:17:56;4.90;99.90
53904;DHT22;39812;52.430;16.936;2024-03-07T08:20:23;4.00;99.90
53904;DHT22;39812;52.430;16.936;2024-03-07T08:22:50;4.00;99.90
53904;DHT22;39812;52.430;16.936;2024-03-07T08:25:20;4.00;99.90
53904;DHT22;39812;52.430;16.936;2024-03-07T08:27:48;3.60;99.90
53904;DHT22;39812;52.430;16.936;2024-03-07T08:30:14;2.70;99.90
53904;DHT22;39812;52.430;16.936;2024-03-07T08:32:48;4.20;99.90
53904;DHT22;39812;52.430;16.936;2024-03-07T08:35:14;5.50;99.90
53904;DHT22;39812;52.430;16.936;2024-03-07T08:37:45;5.60;99.90
53904;DHT22;39812;52.430;16.936;2024-03-07T08:40:12;5.10;99.90
53904;DHT22;39812;52.430;16.936;2024-03-07T08:42:48;4.20;99.90
53904;DHT22;39812;52.430;16.936;2024-03-07T08:47:48;5.40;99.90
53904;DHT22;39812;52.430;16.936;2024-03-07T08:50:14;5.10;99.90
53904;DHT22;39812;52.430;16.936;2024-03-07T08:52:40;4.60;99.90
53904;DHT22;39812;52.430;16.936;2024-03-07T08:55:07;4.70;99.90
53904;DHT22;39812;52.430;16.936;2024-03-07T08:57:36;4.20;99.90
53904;DHT22;39812;52.430;16.936;2024-03-07T09:00:03;4.90;99.90
53904;DHT22;39812;52.430;16.936;2024-03-07T09:07:26;5.30;99.90
53904;DHT22;39812;52.430;16.936;2024-03-07T09:12:17;6.30;99.90
53904;DHT22;39812;52.430;16.936;2024-03-07T09:19:37;5.10;99.90
53904;DHT22;39812;52.430;16.936;2024-03-07T09:22:03;6.00;99.90
53904;DHT22;39812;52.430;16.936;2024-03-07T09:24:30;5.30;99.90
53904;DHT22;39812;52.430;16.936;2024-03-07T09:26:56;3.50;99.90
53904;DHT22;39812;52.430;16.936;2024-03-07T09:29:22;5.30;99.90
53904;DHT22;39812;52.430;16.936;2024-03-07T09:31:51;5.40;99.90
53904;DHT22;39812;52.430;16.936;2024-03-07T09:34:19;5.10;99.90
53904;DHT22;39812;52.430;16.936;2024-03-07T09:46:31;4.50;99.90
53904;DHT22;39812;52.430;16.936;2024-03-07T09:48:57;5.60;99.90
53904;DHT22;39812;52.430;16.936;2024-03-07T09:53:51;5.70;99.90
53904;DHT22;39812;52.430;16.936;2024-03-07T09:56:21;5.70;99.90
53904;DHT22;39812;52.430;16.936;2024-03-07T09:58:49;4.00;99.90
53904;DHT22;39812;52.430;16.936;2024-03-07T10:03:43;5.80;99.90
53904;DHT22;39812;52.430;16.936;2024-03-07T10:06:10;6.60;99.90
53904;DHT22;39812;52.430;16.936;2024-03-07T10:13:28;3.80;99.90
53904;DHT22;39812;52.430;16.936;2024-03-07T10:15:56;5.70;99.90
53904;DHT22;39812;52.430;16.936;2024-03-07T10:20:56;6.40;99.90
53904;DHT22;39812;52.430;16.936;2024-03-07T10:23:22;6.50;99.90
53904;DHT22;39812;52.430;16.936;2024-03-07T10:28:16;6.40;99.90
53904;DHT22;39812;52.430;16.936;2024-03-07T10:30:42;4.00;99.90
53904;DHT22;39812;52.430;16.936;2024-03-07T10:35:38;8.30;99.90
53904;DHT22;39812;52.430;16.936;2024-03-07T10:42:58;6.30;99.90
53904;DHT22;39812;52.430;16.936;2024-03-07T10:45:29;5.90;99.90
53904;DHT22;39812;52.430;16.936;2024-03-07T10:47:57;6.10;99.90
53904;DHT22;39812;52.430;16.936;2024-03-07T10:50:43;6.50;99.90
53904;DHT22;39812;52.430;16.936;2024-03-07T10:55:54;6.10;99.90
53904;DHT22;39812;52.430;16.936;2024-03-07T10:58:57;6.40;99.90
53904;DHT22;39812;52.430;16.936;2024-03-07T11:01:26;7.70;99.90
53904;DHT22;39812;52.430;16.936;2024-03-07T11:06:23;6.50;99.90
53904;DHT22;39812;52.430;16.936;2024-03-07T11:08:49;6.80;99.90
53904;DHT22;39812;52.430;16.936;2024-03-07T11:13:43;8.60;99.90
53904;DHT22;39812;52.430;16.936;2024-03-07T11:23:31;6.90;99.90
53904;DHT22;39812;52.430;16.936;2024-03-07T11:26:10;7.80;99.90
53904;DHT22;39812;52.430;16.936;2024-03-07T11:28:38;7.70;99.90
53904;DHT22;39812;52.430;16.936;2024-03-07T11:34:14;9.40;99.90
53904;DHT22;39812;52.430;16.936;2024-03-07T11:36:44;8.80;99.90
53904;DHT22;39812;52.430;16.936;2024-03-07T11:42:08;8.80;99.90
53904;DHT22;39812;52.430;16.936;2024-03-07T11:44:34;10.50;99.90
53904;DHT22;39812;52.430;16.936;2024-03-07T11:47:05;8.90;99.90
53904;DHT22;39812;52.430;16.936;2024-03-07T11:49:37;10.30;99.90
53904;DHT22;39812;52.430;16.936;2024-03-07T11:52:05;11.40;99.90
53904;DHT22;39812;52.430;16.936;2024-03-07T11:54:39;12.00;99.90
53904;DHT22;39812;52.430;16.936;2024-03-07T11:57:07;13.10;99.90
53904;DHT22;39812;52.430;16.936;2024-03-07T11:59:40;14.10;99.90
53904;DHT22;39812;52.430;16.936;2024-03-07T12:04:36;16.70;99.90
53904;DHT22;39812;52.430;16.936;2024-03-07T12:07:01;17.30;99.90
53904;DHT22;39812;52.430;16.936;2024-03-07T12:09:31;17.90;99.90
53904;DHT22;39812;52.430;16.936;2024-03-07T12:14:24;20.50;99.90
53904;DHT22;39812;52.430;16.936;2024-03-07T12:16:50;20.80;99.90
53904;DHT22;39812;52.430;16.936;2024-03-07T12:21:46;21.10;99.90
53904;DHT22;39812;52.430;16.936;2024-03-07T12:26:40;22.50;99.90
53904;DHT22;39812;52.430;16.936;2024-03-07T12:29:11;23.00;99.90
53904;DHT22;39812;52.430;16.936;2024-03-07T12:31:38;22.30;99.90
53904;DHT22;39812;52.430;16.936;2024-03-07T12:34:04;24.40;99.90
53904;DHT22;39812;52.430;16.936;2024-03-07T12:36:30;19.70;99.90
53904;DHT22;39812;52.430;16.936;2024-03-07T12:39:01;21.80;99.90
53904;DHT22;39812;52.430;16.936;2024-03-07T12:44:19;27.20;99.90
53904;DHT22;39812;52.430;16.936;2024-03-07T12:46:53;25.70;99.90
53904;DHT22;39812;52.430;16.936;2024-03-07T12:49:22;26.20;99.90
53904;DHT22;39812;52.430;16.936;2024-03-07T12:51:53;29.00;99.90
53904;DHT22;39812;52.430;16.936;2024-03-07T12:56:45;26.10;99.90
53904;DHT22;39812;52.430;16.936;2024-03-07T12:59:10;24.80;99.90
53904;DHT22;39812;52.430;16.936;2024-03-07T13:01:36;26.00;99.90
53904;DHT22;39812;52.430;16.936;2024-03-07T13:04:09;28.40;99.90
53904;DHT22;39812;52.430;16.936;2024-03-07T13:06:35;27.20;99.90
53904;DHT22;39812;52.430;16.936;2024-03-07T13:09:01;27.90;99.90
53904;DHT22;39812;52.430;16.936;2024-03-07T13:11:27;27.80;99.90
53904;DHT22;39812;52.430;16.936;2024-03-07T13:13:55;22.10;99.90
53904;DHT22;39812;52.430;16.936;2024-03-07T13:16:22;26.00;99.90
53904;DHT22;39812;52.430;16.936;2024-03-07T13:18:55;28.90;99.90
53904;DHT22;39812;52.430;16.936;2024-03-07T13:21:21;27.60;99.90
53904;DHT22;39812;52.430;16.936;2024-03-07T13:23:47;30.40;99.90
53904;DHT22;39812;52.430;16.936;2024-03-07T13:26:17;28.50;99.90
53904;DHT22;39812;52.430;16.936;2024-03-07T13:28:45;27.50;99.90
53904;DHT22;39812;52.430;16.936;2024-03-07T13:31:12;28.40;99.90
53904;DHT22;39812;52.430;16.936;2024-03-07T13:33:38;29.20;99.90
53904;DHT22;39812;52.430;16.936;2024-03-07T13:36:04;26.30;99.90
53904;DHT22;39812;52.430;16.936;2024-03-07T13:38:30;22.80;99.90
53904;DHT22;39812;52.430;16.936;2024-03-07T13:40:56;27.30;99.90
53904;DHT22;39812;52.430;16.936;2024-03-07T13:43:22;23.00;99.90
53904;DHT22;39812;52.430;16.936;2024-03-07T13:45:48;25.80;99.90
53904;DHT22;39812;52.430;16.936;2024-03-07T13:48:14;26.20;99.90
53904;DHT22;39812;52.430;16.936;2024-03-07T13:50:42;27.60;99.90
53904;DHT22;39812;52.430;16.936;2024-03-07T13:53:14;28.70;99.90
53904;DHT22;39812;52.430;16.936;2024-03-07T14:01:23;28.80;99.90
53904;DHT22;39812;52.430;16.936;2024-03-07T14:04:39;25.70;99.90
53904;DHT22;39812;52.430;16.936;2024-03-07T14:16:44;26.30;99.90
53904;DHT22;39812;52.430;16.936;2024-03-07T14:30:43;27.20;99.90
53904;DHT22;39812;52.430;16.936;2024-03-07T14:33:19;28.70;99.90
53904;DHT22;39812;52.430;16.936;2024-03-07T14:36:10;28.90;99.90
53904;DHT22;39812;52.430;16.936;2024-03-07T14:41:05;26.10;99.90
53904;DHT22;39812;52.430;16.936;2024-03-07T14:43:34;28.50;99.90
53904;DHT22;39812;52.430;16.936;2024-03-07T14:45:59;30.70;99.90
53904;DHT22;39812;52.430;16.936;2024-03-07T14:48:25;23.90;99.90
53904;DHT22;39812;52.430;16.936;2024-03-07T14:50:53;27.10;99.90
53904;DHT22;39812;52.430;16.936;2024-03-07T14:53:19;29.20;99.90
53904;DHT22;39812;52.430;16.936;2024-03-07T14:55:48;26.50;99.90
53904;DHT22;39812;52.430;16.936;2024-03-07T14:58:14;28.30;99.90
53904;DHT22;39812;52.430;16.936;2024-03-07T15:00:42;27.90;99.90
53904;DHT22;39812;52.430;16.936;2024-03-07T15:03:15;27.40;99.90
53904;DHT22;39812;52.430;16.936;2024-03-07T15:05:42;23.20;99.90
53904;DHT22;39812;52.430;16.936;2024-03-07T15:08:11;22.10;99.90
53904;DHT22;39812;52.430;16.936;2024-03-07T15:10:38;25.70;99.90
53904;DHT22;39812;52.430;16.936;2024-03-07T15:13:06;25.30;99.90
53904;DHT22;39812;52.430;16.936;2024-03-07T15:15:33;26.40;99.90
53904;DHT22;39812;52.430;16.936;2024-03-07T15:17:59;23.80;99.90
53904;DHT22;39812;52.430;16.936;2024-03-07T15:20:26;25.90;99.90
53904;DHT22;39812;52.430;16.936;2024-03-07T15:22:56;26.80;99.90
53904;DHT22;39812;52.430;16.936;2024-03-07T15:25:22;26.00;99.90
53904;DHT22;39812;52.430;16.936;2024-03-07T15:27:49;19.00;99.90
53904;DHT22;39812;52.430;16.936;2024-03-07T15:30:18;19.60;99.90
53904;DHT22;39812;52.430;16.936;2024-03-07T15:32:46;22.50;99.90
53904;DHT22;39812;52.430;16.936;2024-03-07T15:35:12;22.50;99.90
53904;DHT22;39812;52.430;16.936;2024-03-07T15:37:41;21.80;99.90
53904;DHT22;39812;52.430;16.936;2024-03-07T15:40:11;18.30;99.90
53904;DHT22;39812;52.430;16.936;2024-03-07T15:42:45;18.30;99.90
53904;DHT22;39812;52.430;16.936;2024-03-07T15:45:16;21.50;99.90
53904;DHT22;39812;52.430;16.936;2024-03-07T15:47:55;20.60;99.90
53904;DHT22;39812;52.430;16.936;2024-03-07T15:52:51;21.20;99.90
53904;DHT22;39812;52.430;16.936;2024-03-07T15:55:17;18.60;99.90
53904;DHT22;39812;52.430;16.936;2024-03-07T15:57:47;18.60;99.90
53904;DHT22;39812;52.430;16.936;2024-03-07T16:00:22;21.50;99.90
53904;DHT22;39812;52.430;16.936;2024-03-07T16:02:57;17.10;99.90
53904;DHT22;39812;52.430;16.936;2024-03-07T16:05:24;17.10;99.90
53904;DHT22;39812;52.430;16.936;2024-03-07T16:07:53;16.10;99.90
53904;DHT22;39812;52.430;16.936;2024-03-07T16:10:19;15.40;99.90
53904;DHT22;39812;52.430;16.936;2024-03-07T16:12:46;12.10;99.90
53904;DHT22;39812;52.430;16.936;2024-03-07T16:15:12;18.10;99.90
53904;DHT22;39812;52.430;16.936;2024-03-07T16:17:38;17.80;99.90
53904;DHT22;39812;52.430;16.936;2024-03-07T16:20:04;15.20;99.90
53904;DHT22;39812;52.430;16.936;2024-03-07T16:22:39;11.60;99.90
53904;DHT22;39812;52.430;16.936;2024-03-07T16:25:06;9.10;99.90
53904;DHT22;39812;52.430;16.936;2024-03-07T16:27:32;8.90;99.90
53904;DHT22;39812;52.430;16.936;2024-03-07T16:29:57;7.70;99.90
53904;DHT22;39812;52.430;16.936;2024-03-07T16:32:23;13.40;99.90
53904;DHT22;39812;52.430;16.936;2024-03-07T16:34:49;6.60;99.90
53904;DHT22;39812;52.430;16.936;2024-03-07T16:37:15;12.20;99.90
53904;DHT22;39812;52.430;16.936;2024-03-07T16:39:41;10.50;99.90
53904;DHT22;39812;52.430;16.936;2024-03-07T16:44:40;4.20;99.90
53904;DHT22;39812;52.430;16.936;2024-03-07T16:49:38;8.90;99.90
53904;DHT22;39812;52.430;16.936;2024-03-07T16:52:04;3.60;99.90
53904;DHT22;39812;52.430;16.936;2024-03-07T16:54:32;6.90;99.90
53904;DHT22;39812;52.430;16.936;2024-03-07T16:57:00;7.20;99.90
53904;DHT22;39812;52.430;16.936;2024-03-07T16:59:26;4.40;99.90
53904;DHT22;39812;52.430;16.936;2024-03-07T17:04:17;5.10;99.90
53904;DHT22;39812;52.430;16.936;2024-03-07T17:09:09;2.70;99.90
53904;DHT22;39812;52.430;16.936;2024-03-07T17:11:36;6.60;99.90
53904;DHT22;39812;52.430;16.936;2024-03-07T17:14:02;5.00;99.90
53904;DHT22;39812;52.430;16.936;2024-03-07T17:16:31;-0.30;99.90
53904;DHT22;39812;52.430;16.936;2024-03-07T17:21:23;0.00;99.90
53904;DHT22;39812;52.430;16.936;2024-03-07T17:23:49;6.40;99.90
53904;DHT22;39812;52.430;16.936;2024-03-07T17:26:15;3.50;99.90
53904;DHT22;39812;52.430;16.936;2024-03-07T17:28:41;3.50;99.90
53904;DHT22;39812;52.430;16.936;2024-03-07T17:33:33;5.80;99.90
53904;DHT22;39812;52.430;16.936;2024-03-07T17:35:58;-0.90;99.90
53904;DHT22;39812;52.430;16.936;2024-03-07T17:43:18;4.40;99.90
53904;DHT22;39812;52.430;16.936;2024-03-07T17:50:36;3.10;99.90
53904;DHT22;39812;52.430;16.936;2024-03-07T17:53:04;2.00;99.90
53904;DHT22;39812;52.430;16.936;2024-03-07T17:55:33;5.00;99.90
53904;DHT22;39812;52.430;16.936;2024-03-07T17:57:59;0.90;99.90
53904;DHT22;39812;52.430;16.936;2024-03-07T18:00:26;2.60;99.90
53904;DHT22;39812;52.430;16.936;2024-03-07T18:02:57;2.50;99.90
53904;DHT22;39812;52.430;16.936;2024-03-07T18:05:27;3.50;99.90
53904;DHT22;39812;52.430;16.936;2024-03-07T18:07:55;2.60;99.90
53904;DHT22;39812;52.430;16.936;2024-03-07T18:10:22;0.90;99.90
53904;DHT22;39812;52.430;16.936;2024-03-07T18:12:50;3.60;99.90
53904;DHT22;39812;52.430;16.936;2024-03-07T18:15:20;3.30;99.90
53904;DHT22;39812;52.430;16.936;2024-03-07T18:17:46;2.20;99.90
53904;DHT22;39812;52.430;16.936;2024-03-07T18:20:18;3.90;99.90
53904;DHT22;39812;52.430;16.936;2024-03-07T18:25:16;2.40;99.90
53904;DHT22;39812;52.430;16.936;2024-03-07T18:27:45;3.20;99.90
53904;DHT22;39812;52.430;16.936;2024-03-07T18:30:12;2.40;99.90
53904;DHT22;39812;52.430;16.936;2024-03-07T18:35:08;3.90;99.90
53904;DHT22;39812;52.430;16.936;2024-03-07T18:37:34;1.70;99.90
53904;DHT22;39812;52.430;16.936;2024-03-07T18:40:03;2.40;99.90
53904;DHT22;39812;52.430;16.936;2024-03-07T18:42:35;2.90;99.90
53904;DHT22;39812;52.430;16.936;2024-03-07T18:45:00;3.10;99.90
53904;DHT22;39812;52.430;16.936;2024-03-07T18:47:40;1.90;99.90
53904;DHT22;39812;52.430;16.936;2024-03-07T18:50:10;3.00;99.90
53904;DHT22;39812;52.430;16.936;2024-03-07T18:52:36;1.70;99.90
53904;DHT22;39812;52.430;16.936;2024-03-07T18:55:09;2.60;99.90
53904;DHT22;39812;52.430;16.936;2024-03-07T18:57:49;2.30;99.90
53904;DHT22;39812;52.430;16.936;2024-03-07T19:02:59;2.20;99.90
53904;DHT22;39812;52.430;16.936;2024-03-07T19:05:30;2.20;99.90
53904;DHT22;39812;52.430;16.936;2024-03-07T19:07:56;2.20;99.90
53904;DHT22;39812;52.430;16.936;2024-03-07T19:10:23;1.70;99.90
53904;DHT22;39812;52.430;16.936;2024-03-07T19:12:49;2.00;99.90
53904;DHT22;39812;52.430;16.936;2024-03-07T19:15:18;1.60;99.90
53904;DHT22;39812;52.430;16.936;2024-03-07T19:17:48;1.60;99.90
53904;DHT22;39812;52.430;16.936;2024-03-07T19:20:18;3.30;99.90
53904;DHT22;39812;52.430;16.936;2024-03-07T19:22:52;2.00;99.90
53904;DHT22;39812;52.430;16.936;2024-03-07T19:27:49;1.80;99.90
53904;DHT22;39812;52.430;16.936;2024-03-07T19:30:20;3.60;99.90
53904;DHT22;39812;52.430;16.936;2024-03-07T19:32:51;3.10;99.90
53904;DHT22;39812;52.430;16.936;2024-03-07T19:35:16;2.80;99.90
53904;DHT22;39812;52.430;16.936;2024-03-07T19:37:46;1.00;99.90
53904;DHT22;39812;52.430;16.936;2024-03-07T19:40:17;2.80;99.90
53904;DHT22;39812;52.430;16.936;2024-03-07T19:45:16;2.70;99.90
53904;DHT22;39812;52.430;16.936;2024-03-07T19:50:09;1.40;99.90
53904;DHT22;39812;52.430;16.936;2024-03-07T19:52:38;0.70;99.90
53904;DHT22;39812;52.430;16.936;2024-03-07T19:55:04;0.90;99.90
53904;DHT22;39812;52.430;16.936;2024-03-07T20:02:24;2.10;99.90
53904;DHT22;39812;52.430;16.936;2024-03-07T20:04:50;2.30;99.90
53904;DHT22;39812;52.430;16.936;2024-03-07T20:07:16;0.40;99.90
53904;DHT22;39812;52.430;16.936;2024-03-07T20:12:11;1.80;99.90
53904;DHT22;39812;52.430;16.936;2024-03-07T20:14:38;1.20;1.00
53904;DHT22;39812;52.430;16.936;2024-03-07T20:21:57;-1.40;1.00
53904;DHT22;39812;52.430;16.936;2024-03-07T20:31:44;-1.00;1.00
53904;DHT22;39812;52.430;16.936;2024-03-07T20:34:09;1.10;1.00
53904;DHT22;39812;52.430;16.936;2024-03-07T20:36:35;2.10;1.00
53904;DHT22;39812;52.430;16.936;2024-03-07T20:39:01;0.30;1.00
53904;DHT22;39812;52.430;16.936;2024-03-07T20:41:34;0.30;1.00
53904;DHT22;39812;52.430;16.936;2024-03-07T20:46:29;2.30;1.00
53904;DHT22;39812;52.430;16.936;2024-03-07T20:53:48;1.30;99.90
53904;DHT22;39812;52.430;16.936;2024-03-07T20:56:17;0.10;1.00
53904;DHT22;39812;52.430;16.936;2024-03-07T21:01:13;-0.50;1.00
53904;DHT22;39812;52.430;16.936;2024-03-07T21:08:33;1.70;1.00
53904;DHT22;39812;52.430;16.936;2024-03-07T21:10:59;1.90;1.00
53904;DHT22;39812;52.430;16.936;2024-03-07T21:13:31;1.40;1.00
53904;DHT22;39812;52.430;16.936;2024-03-07T21:15:56;-1.40;1.00
53904;DHT22;39812;52.430;16.936;2024-03-07T21:23:18;2.30;1.00
53904;DHT22;39812;52.430;16.936;2024-03-07T21:25:44;2.10;1.00
53904;DHT22;39812;52.430;16.936;2024-03-07T21:28:10;0.20;1.00
53904;DHT22;39812;52.430;16.936;2024-03-07T21:35:30;0.30;1.00
53904;DHT22;39812;52.430;16.936;2024-03-07T21:37:57;0.10;1.00
53904;DHT22;39812;52.430;16.936;2024-03-07T21:40:24;0.00;1.00
53904;DHT22;39812;52.430;16.936;2024-03-07T21:52:43;-2.00;1.00
53904;DHT22;39812;52.430;16.936;2024-03-07T21:55:13;0.00;1.00
53904;DHT22;39812;52.430;16.936;2024-03-07T22:00:12;-0.30;1.00
53904;DHT22;39812;52.430;16.936;2024-03-07T22:02:44;0.20;1.00
53904;DHT22;39812;52.430;16.936;2024-03-07T22:05:13;-1.00;1.00
53904;DHT22;39812;52.430;16.936;2024-03-07T22:07:42;0.30;99.90
53904;DHT22;39812;52.430;16.936;2024-03-07T22:10:09;1.60;1.00
53904;DHT22;39812;52.430;16.936;2024-03-07T22:12:39;0.20;1.00
53904;DHT22;39812;52.430;16.936;2024-03-07T22:15:06;1.00;1.00
53904;DHT22;39812;52.430;16.936;2024-03-07T22:19:58;1.30;1.00
53904;DHT22;39812;52.430;16.936;2024-03-07T22:22:23;1.10;1.00
53904;DHT22;39812;52.430;16.936;2024-03-07T22:27:18;1.10;1.00